Time;durP1;ratioP1;P1;durP2;ratioP2;P2;SDS_P1;SDS_P2;PMS_P1;PMS_P2;Temp;Humidity;BMP_temperature;BMP_pressure;BME280_temperature;BME280_humidity;BME280_pressure;Samples;Min_cycle;Max_cycle;Signal;HPM_P1;HPM_P2
2022/03/17 00:00:25;;;;;;;;;;;11.60;99.90;;;10.19;77.19;101658.25;2567160;30;137891;-41
2022/03/17 00:02:53;;;;;;;;;;;11.50;99.90;;;10.20;76.87;101659.06;2567961;30;137892;-42
2022/03/17 00:05:20;;;;;;;;;;;11.50;99.90;;;10.15;77.08;101650.63;2567800;30;137883;-41
2022/03/17 00:07:47;;;;;;;;;;;11.50;99.90;;;10.16;76.46;101653.16;2568425;30;138401;-41
2022/03/17 00:10:16;;;;;;;;;;;11.50;99.90;;;10.12;77.07;101642.81;2566427;30;137384;-41
2022/03/17 00:12:46;;;;;;;;;;;11.50;99.90;;;10.15;77.06;101654.22;2568617;30;138460;-41
2022/03/17 00:15:14;;;;;;;;;;;11.50;99.90;;;10.14;77.24;101651.66;2567701;30;137034;-41
2022/03/17 00:17:41;;;;;;;;;;;11.50;99.90;;;10.12;77.28;101660.03;2566920;30;137548;-41
2022/03/17 00:20:10;;;;;;;;;;;11.50;99.90;;;10.13;76.72;101653.56;2568633;30;136673;-41
2022/03/17 00:22:39;;;;;;;;;;;11.50;99.90;;;10.15;76.66;101656.06;2568826;30;137299;-41
2022/03/17 00:25:08;;;;;;;;;;;11.50;99.90;;;10.11;76.91;101652.03;2567658;30;137238;-41
2022/03/17 00:27:35;;;;;;;;;;;11.50;99.90;;;10.10;77.22;101642.16;2568326;30;139266;-41
2022/03/17 00:30:05;;;;;;;;;;;11.50;99.90;;;10.09;77.00;101644.06;2567918;30;136958;-41
2022/03/17 00:32:32;;;;;;;;;;;11.50;99.90;;;10.00;77.34;101651.50;2567799;30;137333;-41
2022/03/17 00:37:48;;;;;;;;;;;11.40;99.90;;;10.04;77.73;101651.94;2568361;30;137371;-41
2022/03/17 00:40:15;;;;;;;;;;;11.40;99.90;;;10.04;77.32;101652.81;2568455;30;137567;-41
2022/03/17 00:42:44;;;;;;;;;;;11.40;99.90;;;10.08;77.38;101648.66;2565595;30;138529;-41
2022/03/17 00:45:12;;;;;;;;;;;11.40;99.90;;;10.05;77.58;101646.31;2567732;30;137154;-41
2022/03/17 00:47:40;;;;;;;;;;;11.40;99.90;;;10.10;77.07;101650.34;2568513;30;138194;-41
2022/03/17 00:50:10;;;;;;;;;;;11.40;99.90;;;10.08;77.36;101647.81;2567242;30;137466;-41
2022/03/17 00:52:38;;;;;;;;;;;11.40;99.90;;;10.01;77.69;101644.16;2569013;30;138362;-41
2022/03/17 00:55:06;;;;;;;;;;;11.40;99.90;;;10.05;77.49;101648.19;2567059;30;137087;-41
2022/03/17 00:57:36;;;;;;;;;;;11.40;99.90;;;10.10;76.60;101648.47;2568675;30;138802;-41
2022/03/17 01:00:08;;;;;;;;;;;11.40;99.90;;;10.10;77.43;101640.31;2566754;30;137208;-41
2022/03/17 01:02:36;;;;;;;;;;;11.40;99.90;;;10.04;77.09;101633.72;2567216;30;139347;-41
2022/03/17 01:05:04;;;;;;;;;;;11.40;99.90;;;10.05;76.94;101634.53;2568011;30;136854;-41
2022/03/17 01:07:32;;;;;;;;;;;11.40;99.90;;;10.11;76.41;101636.53;2568754;30;138282;-41
2022/03/17 01:10:00;;;;;;;;;;;11.50;99.90;;;10.17;76.82;101630.31;2569269;30;137186;-41
2022/03/17 01:12:28;;;;;;;;;;;11.50;99.90;;;10.10;76.96;101634.84;2567006;30;138311;-41
2022/03/17 01:14:56;;;;;;;;;;;11.50;99.90;;;10.08;77.18;101631.47;2568771;30;137028;-41
2022/03/17 01:17:23;;;;;;;;;;;11.50;99.90;;;10.02;77.07;101627.63;2565680;30;138272;-41
2022/03/17 01:19:51;;;;;;;;;;;11.40;99.90;;;10.13;76.95;101628.16;2567985;30;136668;-42
2022/03/17 01:22:18;;;;;;;;;;;11.40;99.90;;;10.09;76.59;101630.44;2566075;30;139247;-41
2022/03/17 01:24:47;;;;;;;;;;;11.50;99.90;;;10.07;76.64;101629.75;2567344;30;137980;-41
2022/03/17 01:27:20;;;;;;;;;;;11.40;99.90;;;10.02;77.33;101635.78;2568468;30;138838;-42
2022/03/17 01:29:47;;;;;;;;;;;11.50;99.90;;;10.04;76.82;101627.41;2575775;30;138302;-39
2022/03/17 01:32:16;;;;;;;;;;;11.50;99.90;;;10.08;76.93;101632.31;2568630;30;138026;-39
2022/03/17 01:34:43;;;;;;;;;;;11.40;99.90;;;10.06;76.96;101634.38;2570734;30;137327;-41
2022/03/17 01:37:10;;;;;;;;;;;11.50;99.90;;;10.08;77.01;101632.31;2570449;30;138970;-40
2022/03/17 01:39:38;;;;;;;;;;;11.50;99.90;;;10.02;77.60;101632.19;2569289;30;138128;-41
2022/03/17 01:42:08;;;;;;;;;;;11.40;99.90;;;9.99;76.92;101622.53;2568898;30;138627;-39
2022/03/17 01:44:36;;;;;;;;;;;11.40;99.90;;;10.10;76.96;101617.63;2568853;30;137258;-39
2022/03/17 01:49:51;;;;;;;;;;;11.50;99.90;;;10.14;76.76;101630.69;2570274;30;136975;-39
2022/03/17 01:52:18;;;;;;;;;;;11.50;99.90;;;10.12;76.42;101629.19;2569897;30;138217;-40
2022/03/17 01:54:46;;;;;;;;;;;11.50;99.90;;;10.14;76.98;101622.53;2570481;30;137174;-40
2022/03/17 01:57:14;;;;;;;;;;;11.50;99.90;;;10.13;76.00;101630.88;2570468;30;138022;-40
2022/03/17 01:59:41;;;;;;;;;;;11.50;99.90;;;10.16;76.55;101633.22;2569026;30;136772;-40
2022/03/17 02:02:11;;;;;;;;;;;11.50;99.90;;;10.11;76.85;101631.09;2570088;30;137471;-40
2022/03/17 02:04:41;;;;;;;;;;;11.50;99.90;;;10.08;76.78;101626.03;2569903;30;137708;-40
2022/03/17 02:07:11;;;;;;;;;;;11.40;99.90;;;10.07;76.34;101630.59;2571597;30;138528;-39
2022/03/17 02:09:39;;;;;;;;;;;11.50;99.90;;;10.08;76.63;101626.84;2572035;30;137194;-40
2022/03/17 02:14:55;;;;;;;;;;;11.50;99.90;;;10.04;77.06;101633.72;2568272;30;137153;-40
2022/03/17 02:17:23;;;;;;;;;;;11.40;99.90;;;10.04;77.13;101643.75;2569658;30;137333;-39
2022/03/17 02:19:51;;;;;;;;;;;11.40;99.90;;;10.07;77.16;101637.94;2571950;30;137105;-39
2022/03/17 02:22:22;;;;;;;;;;;11.40;99.90;;;10.08;77.07;101634.19;2570472;30;139107;-40
2022/03/17 02:27:42;;;;;;;;;;;11.40;99.90;;;10.10;76.84;101634.84;2569418;30;138424;-39
2022/03/17 02:30:10;;;;;;;;;;;11.50;99.90;;;10.05;77.15;101623.63;2570632;30;137225;-41
2022/03/17 02:32:38;;;;;;;;;;;11.40;99.90;;;10.01;77.08;101633.25;2570431;30;139273;-39
2022/03/17 02:35:12;;;;;;;;;;;11.40;99.90;;;10.02;77.50;101632.19;2567960;30;138021;-40
2022/03/17 02:37:40;;;;;;;;;;;11.40;99.90;;;10.01;77.65;101636.81;2570369;30;138460;-40
2022/03/17 02:40:10;;;;;;;;;;;11.40;99.90;;;9.97;77.37;101619.16;2570822;30;137883;-40
2022/03/17 02:42:38;;;;;;;;;;;11.40;99.90;;;10.03;77.30;101623.00;2570119;30;140550;-40
2022/03/17 02:45:08;;;;;;;;;;;11.40;99.90;;;10.01;78.39;101625.06;2568769;30;137808;-40
2022/03/17 02:47:36;;;;;;;;;;;11.40;99.90;;;10.01;77.51;101630.50;2570588;30;137095;-40
2022/03/17 02:50:04;;;;;;;;;;;11.40;99.90;;;9.96;77.26;101622.91;2570472;30;137071;-40
2022/03/17 02:52:32;;;;;;;;;;;11.40;99.90;;;10.03;76.86;101636.63;2570900;30;137715;-40
2022/03/17 02:55:00;;;;;;;;;;;11.40;99.90;;;10.01;77.76;101630.50;2569865;30;136904;-40
2022/03/17 02:57:27;;;;;;;;;;;11.40;99.90;;;10.01;77.68;101633.25;2570607;30;138315;-40
2022/03/17 02:59:55;;;;;;;;;;;11.40;99.90;;;10.03;77.45;101634.75;2569389;30;138283;-40
2022/03/17 03:02:23;;;;;;;;;;;11.40;99.90;;;10.01;77.59;101630.50;2569202;30;138565;-40
2022/03/17 03:04:51;;;;;;;;;;;11.40;99.90;;;9.99;78.07;101638.03;2570549;30;136979;-40
2022/03/17 03:07:18;;;;;;;;;;;11.40;99.90;;;9.92;78.23;101630.63;2570889;30;138214;-41
2022/03/17 03:09:46;;;;;;;;;;;11.30;99.90;;;9.98;78.02;101634.47;2570796;30;138074;-40
2022/03/17 03:12:13;;;;;;;;;;;11.30;99.90;;;9.97;78.06;101637.38;2568200;30;138388;-40
2022/03/17 03:14:41;;;;;;;;;;;11.30;99.90;;;9.98;77.48;101625.44;2570344;30;137213;-40
2022/03/17 03:17:09;;;;;;;;;;;11.30;99.90;;;9.95;78.56;101631.28;2569088;30;138108;-40
2022/03/17 03:19:36;;;;;;;;;;;11.30;99.90;;;9.92;78.18;101632.47;2567716;30;137098;-40
2022/03/17 03:22:04;;;;;;;;;;;11.30;99.90;;;9.90;78.25;101635.41;2570593;30;138253;-40
2022/03/17 03:24:31;;;;;;;;;;;11.30;99.90;;;9.81;78.17;101631.06;2566571;30;137338;-40
2022/03/17 03:26:59;;;;;;;;;;;11.20;99.90;;;9.84;78.33;101649.81;2570533;30;138081;-40
2022/03/17 03:29:26;;;;;;;;;;;11.20;99.90;;;9.91;78.47;101656.19;2569782;30;137033;-39
2022/03/17 03:31:56;;;;;;;;;;;11.30;99.90;;;9.90;78.73;101659.94;2570000;30;138324;-40
2022/03/17 03:34:25;;;;;;;;;;;11.20;99.90;;;9.88;78.98;101670.19;2569524;30;137126;-41
2022/03/17 03:39:39;;;;;;;;;;;11.30;99.90;;;9.92;78.91;101681.56;2568663;30;137825;-40
2022/03/17 03:42:08;;;;;;;;;;;11.30;99.90;;;9.88;79.04;101683.81;2569122;30;138452;-40
2022/03/17 03:44:37;;;;;;;;;;;11.20;99.90;;;9.89;79.03;101688.25;2570337;30;137166;-40
2022/03/17 03:47:06;;;;;;;;;;;11.30;99.90;;;9.87;79.18;101687.59;2569740;30;139267;-40
2022/03/17 03:49:34;;;;;;;;;;;11.30;99.90;;;9.89;79.61;101690.97;2568622;30;137024;-40
2022/03/17 03:52:02;;;;;;;;;;;11.20;99.90;;;9.95;78.79;101699.44;2568143;30;138166;-40
2022/03/17 03:54:29;;;;;;;;;;;11.30;99.90;;;9.89;79.06;101698.28;2569458;30;137115;-40
2022/03/17 03:56:57;;;;;;;;;;;11.30;99.90;;;9.88;79.52;101707.50;2565745;30;137926;-41
2022/03/17 03:59:26;;;;;;;;;;;11.20;99.90;;;9.86;80.29;101710.41;2570494;30;137102;-41
2022/03/17 04:01:59;;;;;;;;;;;11.20;99.90;;;9.85;82.32;101711.47;2569349;30;138808;-40
2022/03/17 04:04:28;;;;;;;;;;;11.20;99.90;;;9.82;83.00;101717.28;2568624;30;137075;-39
2022/03/17 04:07:01;;;;;;;;;;;11.20;99.90;;;9.75;85.30;101717.16;2568598;30;138252;-40
2022/03/17 04:09:33;;;;;;;;;;;11.20;99.90;;;9.69;86.45;101722.50;2569382;30;136597;-40
2022/03/17 04:12:02;;;;;;;;;;;11.10;99.90;;;9.62;87.25;101728.69;2568816;30;136757;-40
2022/03/17 04:14:32;;;;;;;;;;;11.00;99.90;;;9.55;88.94;101746.81;2569203;30;137073;-40
2022/03/17 04:17:00;;;;;;;;;;;11.00;99.90;;;9.50;89.45;101736.47;2566725;30;139314;-40
2022/03/17 04:19:27;;;;;;;;;;;10.90;99.90;;;9.53;89.74;101745.28;2568276;30;136872;-39
2022/03/17 04:21:55;;;;;;;;;;;10.90;99.90;;;9.49;90.96;101755.69;2571065;30;138320;-40
2022/03/17 04:24:23;;;;;;;;;;;10.80;99.90;;;9.41;91.44;101755.78;2570256;30;136806;-41
2022/03/17 04:26:51;;;;;;;;;;;10.80;99.90;;;9.37;92.60;101763.44;2569601;30;138514;-39
2022/03/17 04:29:18;;;;;;;;;;;10.80;99.90;;;9.38;92.54;101767.03;2567036;30;137460;-40
2022/03/17 04:31:45;;;;;;;;;;;10.80;99.90;;;9.30;92.74;101760.63;2570732;30;138585;-40
2022/03/17 04:34:13;;;;;;;;;;;10.70;99.90;;;9.21;94.73;101756.25;2569764;30;137105;-40
2022/03/17 04:36:41;;;;;;;;;;;10.70;99.90;;;9.20;95.47;101770.88;2570611;30;138350;-40
2022/03/17 04:39:11;;;;;;;;;;;10.60;99.90;;;9.15;96.67;101779.63;2568973;30;137869;-40
2022/03/17 04:41:39;;;;;;;;;;;10.50;99.90;;;9.07;97.68;101782.38;2568851;30;138215;-39
2022/03/17 04:44:08;;;;;;;;;;;10.50;99.90;;;9.08;99.22;101789.50;2570181;30;136775;-39
2022/03/17 04:46:36;;;;;;;;;;;10.50;99.90;;;8.99;99.95;101791.41;2566881;30;138610;-39
2022/03/17 04:49:04;;;;;;;;;;;10.40;99.90;;;8.94;100.00;101790.28;2569722;30;137505;-40
2022/03/17 04:51:32;;;;;;;;;;;10.40;99.90;;;8.88;100.00;101800.00;2568855;30;138197;-39
2022/03/17 04:54:00;;;;;;;;;;;10.30;99.90;;;8.94;100.00;101803.88;2567886;30;136710;-39
2022/03/17 04:56:27;;;;;;;;;;;10.30;99.90;;;8.84;100.00;101806.81;2570116;30;139355;-39
2022/03/17 04:58:54;;;;;;;;;;;10.30;99.90;;;8.78;100.00;101809.22;2568722;30;137415;-39
2022/03/17 05:01:23;;;;;;;;;;;10.20;99.90;;;8.72;100.00;101807.19;2569486;30;138256;-39
2022/03/17 05:03:51;;;;;;;;;;;10.20;99.90;;;8.72;100.00;101818.06;2565098;30;137934;-40
2022/03/17 05:06:19;;;;;;;;;;;10.20;99.90;;;8.70;100.00;101822.00;2569233;30;138347;-40
2022/03/17 05:08:46;;;;;;;;;;;10.10;99.90;;;8.61;100.00;101815.75;2569470;30;136780;-39
2022/03/17 05:11:14;;;;;;;;;;;10.00;99.90;;;8.59;100.00;101834.13;2566595;30;138468;-40
2022/03/17 05:13:46;;;;;;;;;;;10.00;99.90;;;8.57;100.00;101841.59;2569472;30;138060;-43
2022/03/17 05:16:14;;;;;;;;;;;10.00;99.90;;;8.51;100.00;101845.03;2571210;30;138413;-40
2022/03/17 05:18:41;;;;;;;;;;;9.90;99.90;;;8.48;100.00;101857.91;2567318;30;137393;-39
2022/03/17 05:21:09;;;;;;;;;;;9.90;99.90;;;8.42;100.00;101850.44;2569312;30;138310;-39
2022/03/17 05:23:38;;;;;;;;;;;9.90;99.90;;;8.44;100.00;101874.75;2569134;30;137789;-39
2022/03/17 05:26:07;;;;;;;;;;;9.90;99.90;;;8.54;100.00;101880.03;2569449;30;139090;-40
2022/03/17 05:28:35;;;;;;;;;;;9.90;99.90;;;8.51;100.00;101877.66;2567548;30;137328;-40
2022/03/17 05:31:02;;;;;;;;;;;9.90;99.90;;;8.53;100.00;101887.34;2569472;30;138923;-40
2022/03/17 05:33:30;;;;;;;;;;;9.90;99.90;;;8.50;100.00;101890.41;2569840;30;136952;-40
2022/03/17 05:35:58;;;;;;;;;;;9.90;99.90;;;8.56;100.00;101899.75;2571230;30;139162;-40
2022/03/17 05:38:25;;;;;;;;;;;9.90;99.90;;;8.66;100.00;101905.84;2568637;30;137140;-40
2022/03/17 05:40:53;;;;;;;;;;;10.00;99.90;;;8.67;100.00;101909.44;2569671;30;138151;-39
2022/03/17 05:43:20;;;;;;;;;;;10.10;99.90;;;8.68;100.00;101916.56;2570377;30;136820;-40
2022/03/17 05:45:48;;;;;;;;;;;10.00;99.90;;;8.72;100.00;101917.91;2569031;30;138269;-39
2022/03/17 05:48:15;;;;;;;;;;;10.10;99.90;;;8.72;100.00;101926.91;2569851;30;136964;-39
2022/03/17 05:50:45;;;;;;;;;;;10.10;99.90;;;8.75;100.00;101937.47;2569915;30;138239;-40
2022/03/17 05:53:12;;;;;;;;;;;10.10;99.90;;;8.72;100.00;101937.78;2569780;30;137971;-39
2022/03/17 05:55:40;;;;;;;;;;;10.10;99.90;;;8.78;100.00;101942.56;2569845;30;138390;-40
2022/03/17 05:58:08;;;;;;;;;;;10.20;99.90;;;8.75;100.00;101948.34;2569516;30;137487;-40
2022/03/17 06:00:35;;;;;;;;;;;10.20;99.90;;;8.74;100.00;101967.56;2570214;30;137582;-39
2022/03/17 06:03:06;;;;;;;;;;;10.20;99.90;;;8.70;100.00;101964.31;2569851;30;137989;-39
2022/03/17 06:05:33;;;;;;;;;;;10.10;99.90;;;8.71;100.00;101973.34;2572145;30;137830;-39
2022/03/17 06:08:01;;;;;;;;;;;10.10;99.90;;;8.67;100.00;101993.78;2568415;30;136869;-40
2022/03/17 06:10:34;;;;;;;;;;;10.10;99.90;;;8.62;100.00;101995.13;2569643;30;137708;-39
2022/03/17 06:13:04;;;;;;;;;;;10.10;99.90;;;8.57;100.00;101992.06;2571867;30;137088;-39
2022/03/17 06:15:36;;;;;;;;;;;10.10;99.90;;;8.58;100.00;102007.34;2570093;30;140087;-40
2022/03/17 06:18:05;;;;;;;;;;;10.00;99.90;;;8.52;100.00;102013.47;2567601;30;137440;-39
2022/03/17 06:20:35;;;;;;;;;;;10.00;99.90;;;8.42;100.00;102018.22;2569408;30;136859;-39
2022/03/17 06:23:05;;;;;;;;;;;9.90;99.90;;;8.32;100.00;102040.13;2569767;30;137229;-40
2022/03/17 06:25:35;;;;;;;;;;;9.80;99.90;;;8.31;100.00;102049.31;2568480;30;138398;-39
2022/03/17 06:28:08;;;;;;;;;;;9.80;99.90;;;8.25;100.00;102049.97;2568863;30;136982;-39
2022/03/17 06:30:37;;;;;;;;;;;9.70;99.90;;;8.16;100.00;102051.81;2571399;30;137208;-39
2022/03/17 06:33:06;;;;;;;;;;;9.60;99.90;;;8.06;100.00;102062.84;2570388;30;137233;-39
2022/03/17 06:35:34;;;;;;;;;;;9.60;99.90;;;8.06;100.00;102060.13;2568112;30;138247;-39
2022/03/17 06:38:05;;;;;;;;;;;9.50;99.90;;;7.99;100.00;102073.50;2570622;30;137913;-39
2022/03/17 06:40:37;;;;;;;;;;;9.50;99.90;;;7.97;100.00;102082.88;2570568;30;139796;-40
2022/03/17 06:43:05;;;;;;;;;;;9.40;99.90;;;7.89;100.00;102084.50;2570637;30;136845;-39
2022/03/17 06:45:33;;;;;;;;;;;9.40;99.90;;;7.84;100.00;102092.31;2568712;30;138870;-39
2022/03/17 06:48:00;;;;;;;;;;;9.40;99.90;;;7.84;100.00;102107.78;2568409;30;137543;-39
2022/03/17 06:50:27;;;;;;;;;;;9.30;99.90;;;7.81;100.00;102110.78;2569416;30;138366;-39
2022/03/17 06:52:55;;;;;;;;;;;9.20;99.90;;;7.80;100.00;102118.09;2570796;30;136977;-39
2022/03/17 06:55:23;;;;;;;;;;;9.30;99.90;;;7.75;100.00;102115.03;2569044;30;138937;-39
2022/03/17 06:57:51;;;;;;;;;;;9.20;99.90;;;7.74;100.00;102129.63;2570143;30;137153;-39
2022/03/17 07:00:20;;;;;;;;;;;9.20;99.90;;;7.75;100.00;102136.75;2569734;30;139352;-39
2022/03/17 07:02:47;;;;;;;;;;;9.20;99.90;;;7.71;100.00;102151.69;2568660;30;137103;-40
2022/03/17 07:05:15;;;;;;;;;;;9.20;99.90;;;7.70;100.00;102152.72;2572073;30;138068;-39
2022/03/17 07:07:43;;;;;;;;;;;9.20;99.90;;;7.71;100.00;102168.00;2566565;30;137117;-39
2022/03/17 07:10:12;;;;;;;;;;;9.20;99.90;;;7.64;100.00;102178.63;2570609;30;138274;-39
2022/03/17 07:12:41;;;;;;;;;;;9.10;99.90;;;7.59;100.00;102175.56;2570021;30;137066;-41
2022/03/17 07:15:10;;;;;;;;;;;9.00;99.90;;;7.47;100.00;102186.66;2569210;30;138972;-41
2022/03/17 07:17:41;;;;;;;;;;;9.00;99.90;;;7.44;100.00;102191.56;2569560;30;137090;-41
2022/03/17 07:20:14;;;;;;;;;;;8.90;99.90;;;7.38;100.00;102200.31;2569298;30;137471;-39
2022/03/17 07:22:44;;;;;;;;;;;8.90;99.90;;;7.41;100.00;102205.44;2568736;30;137357;-39
2022/03/17 07:25:12;;;;;;;;;;;8.90;99.90;;;7.32;100.00;102202.66;2568294;30;138501;-41
2022/03/17 07:27:45;;;;;;;;;;;8.80;99.90;;;7.33;100.00;102220.66;2570861;30;137287;-41
2022/03/17 07:30:20;;;;;;;;;;;8.80;99.90;;;7.34;100.00;102224.25;2579065;30;138187;-41
2022/03/17 07:32:52;;;;;;;;;;;8.80;99.90;;;7.34;100.00;102235.94;2568577;30;136980;-41
2022/03/17 07:35:20;;;;;;;;;;;8.80;99.90;;;7.29;100.00;102251.84;2568124;30;138385;-41
2022/03/17 07:37:47;;;;;;;;;;;8.80;99.90;;;7.27;100.00;102244.84;2568987;30;138119;-40
2022/03/17 07:40:15;;;;;;;;;;;8.70;99.90;;;7.21;100.00;102257.22;2568754;30;139225;-41
2022/03/17 07:42:42;;;;;;;;;;;8.70;99.90;;;7.22;100.00;102258.06;2567412;30;137656;-40
2022/03/17 07:45:12;;;;;;;;;;;8.70;99.90;;;7.24;100.00;102261.47;2568034;30;137072;-41
2022/03/17 07:47:58;;;;;;;;;;;8.70;99.90;;;7.23;100.00;102268.78;2566233;30;137144;-41
2022/03/17 07:50:26;;;;;;;;;;;8.70;99.90;;;7.24;100.00;102269.59;2568783;30;137663;-40
2022/03/17 07:52:54;;;;;;;;;;;8.70;99.90;;;7.29;100.00;102276.28;2567255;30;137489;-41
2022/03/17 07:55:21;;;;;;;;;;;8.70;99.90;;;7.30;100.00;102288.03;2568847;30;138552;-41
2022/03/17 07:57:48;;;;;;;;;;;8.80;99.90;;;7.25;100.00;102293.03;2569192;30;138030;-41
2022/03/17 08:00:16;;;;;;;;;;;8.70;99.90;;;7.27;100.00;102297.31;2566902;30;139342;-41
2022/03/17 08:02:43;;;;;;;;;;;8.80;99.90;;;7.23;100.00;102309.50;2567346;30;137030;-41
2022/03/17 08:05:13;;;;;;;;;;;8.70;99.90;;;7.19;100.00;102311.66;2568463;30;138284;-41
2022/03/17 08:07:41;;;;;;;;;;;8.70;99.90;;;7.18;100.00;102319.97;2567174;30;137339;-41
2022/03/17 08:10:09;;;;;;;;;;;8.70;99.90;;;7.22;100.00;102325.91;2569477;30;137287;-41
2022/03/17 08:12:37;;;;;;;;;;;8.70;99.90;;;7.28;100.00;102331.59;2568838;30;137234;-41
2022/03/17 08:15:05;;;;;;;;;;;8.70;99.90;;;7.27;100.00;102329.03;2569462;30;138342;-41
2022/03/17 08:17:33;;;;;;;;;;;8.70;99.90;;;7.24;100.00;102330.19;2568197;30;137085;-41
2022/03/17 08:20:03;;;;;;;;;;;8.70;99.90;;;7.28;99.27;102337.03;2567055;30;137323;-41
2022/03/17 08:22:32;;;;;;;;;;;8.70;99.90;;;7.30;99.25;102345.88;2568636;30;137489;-41
2022/03/17 08:25:03;;;;;;;;;;;8.70;99.90;;;7.30;97.78;102356.72;2568634;30;137025;-41
2022/03/17 08:27:31;;;;;;;;;;;8.70;99.90;;;7.27;97.94;102357.03;2569303;30;137057;-41
2022/03/17 08:29:58;;;;;;;;;;;8.70;99.90;;;7.23;98.28;102361.06;2568207;30;139130;-41
2022/03/17 08:32:25;;;;;;;;;;;8.70;99.90;;;7.27;98.12;102365.19;2565999;30;137131;-41
2022/03/17 08:34:53;;;;;;;;;;;8.70;99.90;;;7.31;97.15;102369.28;2568116;30;136772;-41
2022/03/17 08:37:21;;;;;;;;;;;8.70;99.90;;;7.36;97.40;102376.13;2567366;30;136941;-41
2022/03/17 08:39:48;;;;;;;;;;;8.80;99.90;;;7.34;95.95;102388.00;2567834;30;138398;-41
2022/03/17 08:42:15;;;;;;;;;;;8.80;99.90;;;7.37;94.22;102385.97;2568112;30;136833;-42
2022/03/17 08:44:44;;;;;;;;;;;8.80;99.90;;;7.34;94.20;102387.16;2565961;30;138249;-41
2022/03/17 08:49:57;;;;;;;;;;;8.80;99.90;;;7.53;94.51;102398.88;2568419;30;137277;-41
2022/03/17 08:52:25;;;;;;;;;;;8.90;99.90;;;7.66;96.69;102403.94;2568382;30;136866;-41
2022/03/17 08:54:52;;;;;;;;;;;9.00;99.90;;;7.75;93.01;102405.75;2567590;30;138157;-41
2022/03/17 08:57:20;;;;;;;;;;;9.10;99.90;;;7.80;94.73;102406.13;2568510;30;137919;-41
2022/03/17 08:59:48;;;;;;;;;;;9.10;99.90;;;7.88;95.88;102418.94;2567002;30;137720;-41
2022/03/17 09:02:15;;;;;;;;;;;9.20;99.90;;;7.96;95.44;102420.88;2568881;30;137170;-41
2022/03/17 09:04:43;;;;;;;;;;;9.30;99.90;;;7.95;92.45;102422.72;2567855;30;138917;-41
2022/03/17 09:07:11;;;;;;;;;;;9.30;99.90;;;8.01;92.13;102424.81;2569040;30;137169;-41
2022/03/17 09:09:39;;;;;;;;;;;9.40;99.90;;;7.98;90.12;102429.72;2569539;30;138556;-41
2022/03/17 09:12:08;;;;;;;;;;;9.40;99.90;;;7.87;91.55;102426.22;2569584;30;137322;-41
2022/03/17 09:14:38;;;;;;;;;;;9.40;99.90;;;7.91;91.06;102446.63;2570139;30;138505;-41
2022/03/17 09:17:05;;;;;;;;;;;9.30;99.90;;;7.90;91.93;102453.09;2569621;30;137212;-41
2022/03/17 09:19:32;;;;;;;;;;;9.40;99.90;;;7.93;92.54;102454.66;2570229;30;138195;-41
2022/03/17 09:22:00;;;;;;;;;;;9.40;99.90;;;7.88;91.67;102451.56;2570489;30;137304;-41
2022/03/17 09:24:48;;;;;;;;;;;9.30;99.90;;;7.90;92.18;102460.41;2570415;30;137395;-41
2022/03/17 09:27:16;;;;;;;;;;;9.30;99.90;;;7.89;92.77;102467.69;2570044;30;137990;-41
2022/03/17 09:29:43;;;;;;;;;;;9.30;99.90;;;7.84;93.46;102464.59;2569788;30;139043;-41
2022/03/17 09:32:11;;;;;;;;;;;9.30;99.90;;;7.86;91.24;102470.72;2570559;30;137233;-41
2022/03/17 09:34:38;;;;;;;;;;;9.30;99.90;;;7.85;91.14;102463.56;2570707;30;138177;-41
2022/03/17 09:37:06;;;;;;;;;;;9.30;99.90;;;7.97;91.67;102477.78;2568771;30;137159;-41
2022/03/17 09:39:45;;;;;;;;;;;9.30;99.90;;;8.04;92.01;102478.03;2570051;30;138376;-41
2022/03/17 09:42:18;;;;;;;;;;;9.40;99.90;;;8.19;93.85;102481.88;2571034;30;137224;-41
2022/03/17 09:44:47;;;;;;;;;;;9.50;99.90;;;8.17;91.07;102483.06;2570090;30;137409;-41
2022/03/17 09:47:18;;;;;;;;;;;9.50;99.90;;;8.10;90.15;102492.88;2569891;30;136966;-41
2022/03/17 09:49:49;;;;;;;;;;;9.50;99.90;;;8.04;90.05;102495.19;2569502;30;138100;-41
2022/03/17 09:52:17;;;;;;;;;;;9.50;99.90;;;7.98;90.56;102489.53;2568594;30;137415;-41
2022/03/17 09:54:47;;;;;;;;;;;9.40;99.90;;;8.07;92.32;102499.47;2570024;30;139447;-41
2022/03/17 09:57:17;;;;;;;;;;;9.50;99.90;;;8.10;88.91;102503.75;2568971;30;137190;-41
2022/03/17 09:59:53;;;;;;;;;;;9.50;99.90;;;8.13;91.36;102509.72;2569360;30;139317;-41
2022/03/17 10:02:22;;;;;;;;;;;9.50;99.90;;;8.26;90.18;102513.94;2567154;30;137031;-41
2022/03/17 10:04:50;;;;;;;;;;;9.60;99.90;;;8.34;89.93;102522.97;2569531;30;138129;-41
2022/03/17 10:07:22;;;;;;;;;;;9.70;99.90;;;8.40;89.19;102520.69;2570209;30;137437;-41
2022/03/17 10:09:50;;;;;;;;;;;9.70;99.90;;;8.31;88.71;102525.19;2568638;30;138209;-41
2022/03/17 10:12:20;;;;;;;;;;;9.70;99.90;;;8.30;87.51;102531.63;2570030;30;137126;-41
2022/03/17 10:14:50;;;;;;;;;;;9.70;99.90;;;8.32;88.00;102535.06;2569257;30;137087;-41
2022/03/17 10:17:32;;;;;;;;;;;9.70;99.90;;;8.41;88.01;102534.09;2569389;30;138527;-42
2022/03/17 10:20:17;;;;;;;;;;;9.80;99.90;;;8.51;88.82;102541.38;2569295;30;137517;-41
2022/03/17 10:23:23;;;;;;;;;;;9.80;99.90;;;8.56;86.69;102548.03;2567466;30;138176;-41
2022/03/17 10:25:55;;;;;;;;;;;9.90;99.90;;;8.72;87.22;102550.03;2566298;30;138732;-41
2022/03/17 10:28:26;;;;;;;;;;;10.00;99.90;;;8.88;88.99;102551.19;2566390;30;137756;-41
2022/03/17 10:31:04;;;;;;;;;;;10.10;99.90;;;8.97;86.81;102558.38;2568187;30;137495;-41
2022/03/17 10:33:33;;;;;;;;;;;10.20;99.90;;;8.95;84.48;102570.47;2568576;30;136936;-41
2022/03/17 10:36:20;;;;;;;;;;;10.30;99.90;;;9.07;85.66;102575.50;2568192;30;139072;-41
2022/03/17 10:38:50;;;;;;;;;;;10.30;99.90;;;9.16;86.85;102570.97;2567351;30;136646;-41
2022/03/17 10:41:18;;;;;;;;;;;10.40;99.90;;;9.10;84.32;102565.28;2568528;30;138505;-41
2022/03/17 10:43:45;;;;;;;;;;;10.40;99.90;;;9.25;85.46;102580.00;2569116;30;137413;-41
2022/03/17 10:46:15;;;;;;;;;;;10.50;99.90;;;9.25;83.60;102581.91;2568180;30;137749;-41
2022/03/17 10:48:54;;;;;;;;;;;10.50;99.90;;;9.27;83.52;102588.88;2567785;30;137447;-41
2022/03/17 10:51:41;;;;;;;;;;;10.60;99.90;;;9.20;82.61;102588.69;2568866;30;138408;-41
2022/03/17 10:54:15;;;;;;;;;;;10.50;99.90;;;9.23;85.76;102598.38;2567712;30;136937;-41
2022/03/17 10:56:42;;;;;;;;;;;10.50;99.90;;;9.31;85.21;102593.00;2566595;30;138239;-41
2022/03/17 10:59:10;;;;;;;;;;;10.60;99.90;;;9.24;82.65;102599.25;2567552;30;136891;-41
2022/03/17 11:01:46;;;;;;;;;;;10.60;99.90;;;9.18;84.56;102598.88;2568110;30;137165;-42
2022/03/17 11:04:14;;;;;;;;;;;10.60;99.90;;;9.13;84.11;102613.97;2569241;30;137816;-41
2022/03/17 11:06:42;;;;;;;;;;;10.50;99.90;;;9.10;81.38;102609.69;2567766;30;138285;-41
2022/03/17 11:09:10;;;;;;;;;;;10.40;99.90;;;9.10;82.54;102615.13;2568117;30;137895;-41
2022/03/17 11:11:38;;;;;;;;;;;10.50;99.90;;;9.14;84.75;102610.25;2568092;30;136725;-41
2022/03/17 11:14:06;;;;;;;;;;;10.50;99.90;;;9.17;85.35;102615.38;2568791;30;136614;-41
2022/03/17 11:16:43;;;;;;;;;;;10.50;99.90;;;9.26;83.94;102624.47;2568228;30;138166;-41
2022/03/17 11:19:13;;;;;;;;;;;10.60;99.90;;;9.46;85.12;102623.22;2569403;30;137181;-41
2022/03/17 11:21:46;;;;;;;;;;;10.70;99.90;;;9.80;85.48;102626.97;2568569;30;139190;-41
2022/03/17 11:24:19;;;;;;;;;;;10.90;99.90;;;9.77;80.03;102632.75;2567700;30;136698;-41
2022/03/17 11:26:47;;;;;;;;;;;11.00;99.90;;;10.00;82.21;102637.63;2566032;30;138268;-41
2022/03/17 11:29:21;;;;;;;;;;;11.20;99.90;;;10.06;79.02;102637.81;2566782;30;137185;-41
2022/03/17 11:32:02;;;;;;;;;;;11.30;99.90;;;10.01;77.93;102644.78;2568718;30;138324;-41